createdAt,value
2023-01-19T00:00:04.340Z,95073
2023-01-19T00:01:04.265Z,95076
2023-01-19T00:02:04.330Z,95078
2023-01-19T00:04:04.289Z,95078
2023-01-19T00:05:04.294Z,95078
2023-01-19T00:06:04.383Z,95081
2023-01-19T00:07:04.322Z,95078
2023-01-19T00:08:04.319Z,95078
2023-01-19T00:09:04.290Z,95081
2023-01-19T00:10:04.364Z,95081
2023-01-19T00:11:04.319Z,95079
2023-01-19T00:12:04.321Z,95081
2023-01-19T00:13:04.371Z,95081
2023-01-19T00:14:04.348Z,95081
2023-01-19T00:15:04.336Z,95082
2023-01-19T00:16:04.322Z,95078
2023-01-19T00:18:04.413Z,95080
2023-01-19T00:20:04.375Z,95078
2023-01-19T00:21:04.298Z,95081
2023-01-19T00:23:04.320Z,95082
2023-01-19T00:25:04.318Z,95084
2023-01-19T00:26:04.307Z,95082
2023-01-19T00:27:04.395Z,95085
2023-01-19T00:29:04.368Z,95085
2023-01-19T00:31:04.470Z,95085
2023-01-19T00:32:04.346Z,95091
2023-01-19T00:33:04.359Z,95091
2023-01-19T00:34:04.333Z,95089
2023-01-19T00:35:04.372Z,95089
2023-01-19T00:36:04.381Z,95083
2023-01-19T00:37:04.383Z,95086
2023-01-19T00:39:04.397Z,95084
2023-01-19T00:41:04.385Z,95081
2023-01-19T00:42:04.405Z,95084
2023-01-19T00:43:04.424Z,95082
2023-01-19T00:45:04.377Z,95081
2023-01-19T00:47:04.392Z,95082
2023-01-19T00:49:04.393Z,95082
2023-01-19T00:50:04.370Z,95082
2023-01-19T00:51:04.384Z,95081
2023-01-19T00:52:04.449Z,95082
2023-01-19T00:54:04.387Z,95084
2023-01-19T00:57:04.399Z,95088
2023-01-19T00:59:04.432Z,95090
2023-01-19T01:00:04.472Z,95094
2023-01-19T01:01:04.506Z,95091
2023-01-19T01:02:04.641Z,95092
2023-01-19T01:03:04.961Z,95092
2023-01-19T01:04:04.402Z,95094
2023-01-19T01:06:04.443Z,95098
2023-01-19T01:07:04.407Z,95098
2023-01-19T01:09:04.418Z,95095
2023-01-19T01:10:04.422Z,95095
2023-01-19T01:12:04.468Z,95100
2023-01-19T01:13:20.012Z,95099
2023-01-19T01:14:04.471Z,95096
2023-01-19T01:15:04.476Z,95096
2023-01-19T01:16:04.584Z,95097
2023-01-19T01:18:04.491Z,95098
2023-01-19T01:19:04.491Z,95098
2023-01-19T01:21:04.517Z,95099
2023-01-19T01:22:04.509Z,95100
2023-01-19T01:23:04.776Z,95102
2023-01-19T01:24:04.494Z,95104
2023-01-19T01:25:04.472Z,95102
2023-01-19T01:26:04.458Z,95102
2023-01-19T01:27:04.481Z,95107
2023-01-19T01:28:04.500Z,95107
2023-01-19T01:30:04.604Z,95110
2023-01-19T01:31:04.507Z,95110
2023-01-19T01:33:04.474Z,95100
2023-01-19T01:34:04.545Z,95106
2023-01-19T01:35:04.494Z,95104
2023-01-19T01:36:04.533Z,95104
2023-01-19T01:37:04.486Z,95105
2023-01-19T01:39:04.514Z,95105
2023-01-19T01:40:04.527Z,95104
2023-01-19T01:41:04.536Z,95107
2023-01-19T01:42:04.579Z,95106
2023-01-19T01:43:04.520Z,95106
2023-01-19T01:44:04.520Z,95108
2023-01-19T01:45:04.501Z,95109
2023-01-19T01:46:04.591Z,95113
2023-01-19T01:47:04.572Z,95113
2023-01-19T01:48:04.515Z,95113
2023-01-19T01:49:04.531Z,95111
2023-01-19T01:50:04.543Z,95117
2023-01-19T01:51:04.548Z,95116
2023-01-19T01:53:06.458Z,95115
2023-01-19T01:54:04.557Z,95115
2023-01-19T01:55:04.566Z,95113
2023-01-19T01:56:04.546Z,95116
2023-01-19T01:57:04.553Z,95116
2023-01-19T01:58:04.572Z,95116
2023-01-19T01:59:04.540Z,95116
2023-01-19T02:00:04.530Z,95116
2023-01-19T02:01:04.695Z,95116
2023-01-19T02:02:04.671Z,95117
2023-01-19T02:03:04.772Z,95115
2023-01-19T02:06:04.555Z,95121
2023-01-19T02:08:04.604Z,95123
2023-01-19T02:09:04.596Z,95123
2023-01-19T02:10:04.574Z,95120
2023-01-19T02:11:04.632Z,95124
2023-01-19T02:15:04.590Z,95126
2023-01-19T02:16:04.643Z,95129
2023-01-19T02:17:04.623Z,95125
2023-01-19T02:18:04.625Z,95129
2023-01-19T02:19:04.737Z,95129
2023-01-19T02:20:04.651Z,95132
2023-01-19T02:21:04.647Z,95132
2023-01-19T02:22:04.618Z,95131
2023-01-19T02:23:04.624Z,95129
2023-01-19T02:24:04.637Z,95130
2023-01-19T02:26:04.595Z,95132
2023-01-19T02:27:04.612Z,95130
2023-01-19T02:28:04.646Z,95133
2023-01-19T02:30:04.590Z,95128
2023-01-19T02:31:04.674Z,95127
2023-01-19T02:32:04.741Z,95128
2023-01-19T02:33:04.670Z,95127
2023-01-19T02:34:04.669Z,95128
2023-01-19T02:35:04.619Z,95128
2023-01-19T02:36:04.666Z,95128
2023-01-19T02:38:04.662Z,95130
2023-01-19T02:39:04.621Z,95130
2023-01-19T02:40:04.636Z,95129
2023-01-19T02:41:04.664Z,95131
2023-01-19T02:42:04.644Z,95131
2023-01-19T02:43:04.675Z,95134
2023-01-19T02:45:04.729Z,95135
2023-01-19T02:46:04.710Z,95135
2023-01-19T02:47:04.648Z,95139
2023-01-19T02:48:04.686Z,95140
2023-01-19T02:49:04.691Z,95140
2023-01-19T02:50:04.686Z,95140
2023-01-19T02:52:04.682Z,95139
2023-01-19T02:53:04.659Z,95137
2023-01-19T02:54:04.719Z,95139
2023-01-19T02:56:04.692Z,95136
2023-01-19T02:57:04.720Z,95136
2023-01-19T02:58:04.762Z,95141
2023-01-19T02:59:04.685Z,95140
2023-01-19T03:00:04.717Z,95142
2023-01-19T03:01:04.821Z,95141
2023-01-19T03:05:05.194Z,95148
2023-01-19T03:06:04.699Z,95147
2023-01-19T03:07:04.729Z,95152
2023-01-19T03:08:04.726Z,95151
2023-01-19T03:09:04.679Z,95151
2023-01-19T03:10:04.765Z,95150
2023-01-19T03:14:04.770Z,95157
2023-01-19T03:15:04.751Z,95157
2023-01-19T03:17:04.763Z,95154
2023-01-19T03:18:04.751Z,95154
2023-01-19T03:20:04.827Z,95152
2023-01-19T03:21:04.741Z,95155
2023-01-19T03:22:04.780Z,95156
2023-01-19T03:23:04.727Z,95157
2023-01-19T03:25:04.799Z,95155
2023-01-19T03:26:04.763Z,95155
2023-01-19T03:27:04.824Z,95158
2023-01-19T03:28:04.776Z,95157
2023-01-19T03:29:04.749Z,95156
2023-01-19T03:30:04.742Z,95156
2023-01-19T03:31:04.886Z,95156
2023-01-19T03:32:04.788Z,95153
2023-01-19T03:34:04.768Z,95157
2023-01-19T03:36:04.817Z,95155
2023-01-19T03:37:04.762Z,95152
2023-01-19T03:39:04.778Z,95162
2023-01-19T03:40:04.832Z,95157
2023-01-19T03:41:04.770Z,95157
2023-01-19T03:42:04.797Z,95156
2023-01-19T03:43:04.812Z,95157
2023-01-19T03:44:04.796Z,95157
2023-01-19T03:45:04.784Z,95158
2023-01-19T03:46:04.832Z,95158
2023-01-19T03:47:04.836Z,95161
2023-01-19T03:48:04.784Z,95161
2023-01-19T03:49:04.793Z,95159
2023-01-19T03:50:04.831Z,95166
2023-01-19T03:52:04.815Z,95166
2023-01-19T03:53:04.859Z,95166
2023-01-19T03:54:04.837Z,95163
2023-01-19T03:55:04.835Z,95163
2023-01-19T03:56:04.815Z,95164
2023-01-19T03:57:04.824Z,95164
2023-01-19T03:58:04.799Z,95168
2023-01-19T03:59:04.873Z,95166
2023-01-19T04:00:04.814Z,95171
2023-01-19T04:01:04.864Z,95172
2023-01-19T04:02:04.832Z,95172
2023-01-19T04:03:05.177Z,95174
2023-01-19T04:04:04.871Z,95177
2023-01-19T04:05:04.834Z,95178
2023-01-19T04:06:04.832Z,95179
2023-01-19T04:07:04.872Z,95179
2023-01-19T04:08:04.873Z,95179
2023-01-19T04:09:04.878Z,95177
2023-01-19T04:10:04.884Z,95177
2023-01-19T04:11:04.863Z,95184
2023-01-19T04:13:04.887Z,95180
2023-01-19T04:15:04.875Z,95179
2023-01-19T04:16:04.984Z,95177
2023-01-19T04:17:04.919Z,95178
2023-01-19T04:18:04.898Z,95178
2023-01-19T04:19:04.904Z,95179
2023-01-19T04:20:04.874Z,95179
2023-01-19T04:21:04.891Z,95179
2023-01-19T04:22:04.899Z,95175
2023-01-19T04:23:04.871Z,95177
2023-01-19T04:24:04.956Z,95181
2023-01-19T04:25:04.929Z,95180
2023-01-19T04:28:04.902Z,95176
2023-01-19T04:29:04.916Z,95179
2023-01-19T04:30:04.888Z,95180
2023-01-19T04:31:04.926Z,95182
2023-01-19T04:32:04.939Z,95180
2023-01-19T04:33:04.905Z,95180
2023-01-19T04:34:04.887Z,95180
2023-01-19T04:35:04.901Z,95184
2023-01-19T04:36:04.906Z,95185
2023-01-19T04:37:04.987Z,95187
2023-01-19T04:39:04.933Z,95187
2023-01-19T04:41:04.946Z,95186
2023-01-19T04:42:04.915Z,95185
2023-01-19T04:43:04.959Z,95186
2023-01-19T04:44:04.943Z,95185
2023-01-19T04:45:04.968Z,95188
2023-01-19T04:46:04.963Z,95187
2023-01-19T04:47:04.964Z,95187
2023-01-19T04:48:04.945Z,95186
2023-01-19T04:50:04.990Z,95185
2023-01-19T04:51:05.005Z,95193
2023-01-19T04:53:05.010Z,95194
2023-01-19T04:55:04.992Z,95189
2023-01-19T04:56:04.964Z,95189
2023-01-19T04:57:04.955Z,95191
2023-01-19T04:58:05.046Z,95196
2023-01-19T05:00:05.003Z,95195
2023-01-19T05:01:05.036Z,95199
2023-01-19T05:02:04.997Z,95199
2023-01-19T05:03:05.490Z,95202
2023-01-19T05:04:04.980Z,95203
2023-01-19T05:05:05.031Z,95205
2023-01-19T05:06:04.997Z,95205
2023-01-19T05:07:04.989Z,95205
2023-01-19T05:08:05.010Z,95211
2023-01-19T05:09:04.991Z,95209
2023-01-19T05:10:04.985Z,95210
2023-01-19T05:11:05.043Z,95207
2023-01-19T05:12:05.002Z,95207
2023-01-19T05:13:05.022Z,95210
2023-01-19T05:14:05.064Z,95208
2023-01-19T05:15:05.011Z,95208
2023-01-19T05:16:05.062Z,95208
2023-01-19T05:17:05.056Z,95205
2023-01-19T05:18:04.993Z,95205
2023-01-19T05:19:05.009Z,95203
2023-01-19T05:20:05.133Z,95202
2023-01-19T05:22:05.072Z,95205
2023-01-19T05:23:05.051Z,95205
2023-01-19T05:24:05.028Z,95212
2023-01-19T05:25:05.055Z,95214
2023-01-19T05:26:05.040Z,95214
2023-01-19T05:27:05.049Z,95212
2023-01-19T05:28:05.074Z,95211
2023-01-19T05:29:05.050Z,95215
2023-01-19T05:30:05.064Z,95218
2023-01-19T05:31:05.248Z,95219
2023-01-19T05:32:05.106Z,95219
2023-01-19T05:33:05.077Z,95224
2023-01-19T05:34:05.080Z,95231
2023-01-19T05:35:05.092Z,95228
2023-01-19T05:36:05.103Z,95228
2023-01-19T05:37:05.083Z,95225
2023-01-19T05:38:05.089Z,95225
2023-01-19T05:39:05.044Z,95224
2023-01-19T05:40:05.055Z,95224
2023-01-19T05:41:05.063Z,95226
2023-01-19T05:42:05.081Z,95221
2023-01-19T05:43:05.571Z,95230
2023-01-19T05:44:05.094Z,95231
2023-01-19T05:45:05.065Z,95231
2023-01-19T05:46:05.097Z,95234
2023-01-19T05:47:05.099Z,95232
2023-01-19T05:48:05.100Z,95228
2023-01-19T05:49:05.200Z,95225
2023-01-19T05:50:05.148Z,95225
2023-01-19T05:51:05.150Z,95222
2023-01-19T05:52:05.141Z,95222
2023-01-19T05:53:05.147Z,95223
2023-01-19T05:54:05.130Z,95222
2023-01-19T05:55:05.091Z,95222
2023-01-19T05:56:05.150Z,95222
2023-01-19T05:57:05.144Z,95220
2023-01-19T05:58:05.087Z,95221
2023-01-19T05:59:05.101Z,95221
2023-01-19T06:00:05.152Z,95222
2023-01-19T06:01:05.177Z,95217
2023-01-19T06:03:05.377Z,95215
2023-01-19T06:04:05.150Z,95218
2023-01-19T06:05:05.168Z,95218
2023-01-19T06:06:05.154Z,95220
2023-01-19T06:07:05.157Z,95228
2023-01-19T06:08:05.122Z,95228
2023-01-19T06:10:05.177Z,95229
2023-01-19T06:11:05.161Z,95229
2023-01-19T06:12:05.167Z,95228
2023-01-19T06:13:05.166Z,95228
2023-01-19T06:14:05.169Z,95233
2023-01-19T06:15:05.217Z,95231
2023-01-19T06:16:05.262Z,95232
2023-01-19T06:17:05.168Z,95233
2023-01-19T06:18:05.190Z,95238
2023-01-19T06:19:05.179Z,95238
2023-01-19T06:20:05.194Z,95235
2023-01-19T06:21:05.210Z,95235
2023-01-19T06:22:05.239Z,95237
2023-01-19T06:23:05.209Z,95242
2023-01-19T06:24:05.191Z,95242
2023-01-19T06:25:05.195Z,95240
2023-01-19T06:26:05.233Z,95240
2023-01-19T06:27:05.160Z,95240
2023-01-19T06:28:05.174Z,95249
2023-01-19T06:29:05.213Z,95249
2023-01-19T06:30:05.248Z,95250
2023-01-19T06:31:05.266Z,95250
2023-01-19T06:32:05.253Z,95256
2023-01-19T06:33:05.192Z,95257
2023-01-19T06:34:05.222Z,95255
2023-01-19T06:35:05.197Z,95258
2023-01-19T06:36:05.203Z,95264
2023-01-19T06:37:05.212Z,95261
2023-01-19T06:38:05.220Z,95266
2023-01-19T06:39:05.227Z,95267
2023-01-19T06:40:05.242Z,95267
2023-01-19T06:41:05.247Z,95271
2023-01-19T06:42:05.234Z,95268
2023-01-19T06:43:05.241Z,95273
2023-01-19T06:44:05.227Z,95274
2023-01-19T06:45:05.214Z,95277
2023-01-19T06:46:05.276Z,95276
2023-01-19T06:47:15.594Z,95278
2023-01-19T06:48:05.256Z,95276
2023-01-19T06:49:05.264Z,95276
2023-01-19T06:50:05.251Z,95278
2023-01-19T06:51:05.263Z,95279
2023-01-19T06:52:05.222Z,95281
2023-01-19T06:53:05.225Z,95281
2023-01-19T06:56:06.194Z,95290
2023-01-19T06:57:05.283Z,95290
2023-01-19T06:58:05.282Z,95289
2023-01-19T06:59:05.277Z,95293
2023-01-19T07:00:05.271Z,95293
2023-01-19T07:01:05.462Z,95297
2023-01-19T07:02:26.270Z,95297
2023-01-19T07:03:05.464Z,95295
2023-01-19T07:04:05.276Z,95292
2023-01-19T07:05:05.242Z,95294
2023-01-19T07:06:05.290Z,95292
2023-01-19T07:07:05.337Z,95294
2023-01-19T07:08:05.315Z,95294
2023-01-19T07:09:05.293Z,95289
2023-01-19T07:11:23.584Z,95294
2023-01-19T07:12:05.324Z,95295
2023-01-19T07:13:05.265Z,95297
2023-01-19T07:15:05.339Z,95298
2023-01-19T07:16:06.660Z,95297
2023-01-19T07:17:05.288Z,95296
2023-01-19T07:18:05.349Z,95296
2023-01-19T07:19:05.306Z,95296
2023-01-19T07:20:05.358Z,95300
2023-01-19T07:21:05.349Z,95301
2023-01-19T07:22:05.320Z,95301
2023-01-19T07:23:05.575Z,95298
2023-01-19T07:24:05.296Z,95297
2023-01-19T07:25:05.312Z,95298
2023-01-19T07:26:05.306Z,95298
2023-01-19T07:27:05.334Z,95296
2023-01-19T07:28:05.372Z,95300
2023-01-19T07:29:05.365Z,95300
2023-01-19T07:30:05.299Z,95306
2023-01-19T07:31:05.467Z,95306
2023-01-19T07:32:05.321Z,95306
2023-01-19T07:33:05.353Z,95306
2023-01-19T07:34:05.332Z,95305
2023-01-19T07:35:05.384Z,95307
2023-01-19T07:37:05.332Z,95307
2023-01-19T07:38:05.373Z,95313
2023-01-19T07:39:05.373Z,95312
2023-01-19T07:40:05.372Z,95312
2023-01-19T07:41:05.452Z,95314
2023-01-19T07:42:05.387Z,95314
2023-01-19T07:43:05.387Z,95311
2023-01-19T07:44:05.424Z,95311
2023-01-19T07:45:05.340Z,95314
2023-01-19T07:46:05.519Z,95320
2023-01-19T07:47:05.395Z,95320
2023-01-19T07:48:05.394Z,95318
2023-01-19T07:49:05.382Z,95318
2023-01-19T07:50:05.384Z,95319
2023-01-19T07:51:05.560Z,95319
2023-01-19T07:52:05.387Z,95319
2023-01-19T07:53:05.449Z,95321
2023-01-19T07:54:05.366Z,95320
2023-01-19T07:55:05.412Z,95322
2023-01-19T07:56:05.444Z,95318
2023-01-19T07:57:05.464Z,95321
2023-01-19T07:58:05.415Z,95321
2023-01-19T07:59:05.407Z,95324
2023-01-19T08:00:05.387Z,95326
2023-01-19T08:01:05.562Z,95326
2023-01-19T08:02:05.619Z,95325
2023-01-19T08:03:05.528Z,95325
2023-01-19T08:04:05.432Z,95325
2023-01-19T08:05:05.458Z,95327
2023-01-19T08:06:05.421Z,95327
2023-01-19T08:07:05.448Z,95331
2023-01-19T08:09:05.767Z,95337
2023-01-19T08:10:05.539Z,95335
2023-01-19T08:12:05.453Z,95338
2023-01-19T08:13:05.464Z,95335
2023-01-19T08:14:07.757Z,95337
2023-01-19T08:15:05.968Z,95336
2023-01-19T08:16:05.573Z,95336
2023-01-19T08:17:05.488Z,95343
2023-01-19T08:18:05.474Z,95341
2023-01-19T08:19:05.477Z,95336
2023-01-19T08:20:05.457Z,95336
2023-01-19T08:21:05.504Z,95344
2023-01-19T08:22:05.472Z,95340
2023-01-19T08:23:05.506Z,95336
2023-01-19T08:24:05.617Z,95340
2023-01-19T08:25:05.473Z,95339
2023-01-19T08:26:05.505Z,95337
2023-01-19T08:27:06.035Z,95338
2023-01-19T08:28:05.484Z,95338
2023-01-19T08:29:05.472Z,95342
2023-01-19T08:30:05.504Z,95341
2023-01-19T08:31:19.205Z,95341
2023-01-19T08:33:05.485Z,95341
2023-01-19T08:34:05.472Z,95339
2023-01-19T08:35:05.458Z,95339
2023-01-19T08:36:05.471Z,95340
2023-01-19T08:37:05.482Z,95339
2023-01-19T08:38:05.521Z,95342
2023-01-19T08:39:05.581Z,95344
2023-01-19T08:40:05.481Z,95342
2023-01-19T08:41:05.531Z,95340
2023-01-19T08:42:05.495Z,95343
2023-01-19T08:43:05.516Z,95343
2023-01-19T08:44:05.544Z,95347
2023-01-19T08:45:05.751Z,95349
2023-01-19T08:46:05.516Z,95349
2023-01-19T08:47:05.584Z,95341
2023-01-19T08:48:05.532Z,95345
2023-01-19T08:49:05.510Z,95349
2023-01-19T08:50:05.499Z,95350
2023-01-19T08:51:05.784Z,95350
2023-01-19T08:52:05.531Z,95347
2023-01-19T08:53:05.494Z,95347
2023-01-19T08:54:05.552Z,95350
2023-01-19T08:55:05.515Z,95353
2023-01-19T08:56:05.548Z,95353
2023-01-19T08:57:05.581Z,95350
2023-01-19T08:58:05.562Z,95349
2023-01-19T08:59:09.814Z,95349
2023-01-19T09:00:05.573Z,95348
2023-01-19T09:01:05.571Z,95348
2023-01-19T09:02:05.578Z,95347
2023-01-19T09:03:06.182Z,95347
2023-01-19T09:04:05.582Z,95349
2023-01-19T09:05:05.597Z,95352
2023-01-19T09:06:05.584Z,95349
2023-01-19T09:08:05.572Z,95346
2023-01-19T09:09:05.615Z,95350
2023-01-19T09:10:05.625Z,95357
2023-01-19T09:11:05.540Z,95351
2023-01-19T09:12:05.586Z,95350
2023-01-19T09:13:05.580Z,95351
2023-01-19T09:14:05.577Z,95353
2023-01-19T09:15:06.243Z,95353
2023-01-19T09:16:05.651Z,95351
2023-01-19T09:17:05.575Z,95351
2023-01-19T09:19:05.597Z,95352
2023-01-19T09:20:05.612Z,95348
2023-01-19T09:21:05.672Z,95350
2023-01-19T09:22:05.633Z,95352
2023-01-19T09:23:05.631Z,95349
2023-01-19T09:24:05.613Z,95349
2023-01-19T09:25:05.606Z,95353
2023-01-19T09:26:05.618Z,95355
2023-01-19T09:27:05.610Z,95353
2023-01-19T09:28:05.626Z,95352
2023-01-19T09:29:05.639Z,95351
2023-01-19T09:30:05.592Z,95351
2023-01-19T09:31:05.761Z,95348
2023-01-19T09:32:05.634Z,95350
2023-01-19T09:33:05.797Z,95351
2023-01-19T09:34:05.650Z,95347
2023-01-19T09:35:05.656Z,95344
2023-01-19T09:36:05.645Z,95352
2023-01-19T09:37:05.661Z,95345
2023-01-19T09:38:05.637Z,95345
2023-01-19T09:39:05.744Z,95350
2023-01-19T09:40:05.791Z,95353
2023-01-19T09:41:05.635Z,95353
2023-01-19T09:42:05.623Z,95350
2023-01-19T09:43:05.675Z,95352
2023-01-19T09:44:05.668Z,95352
2023-01-19T09:45:05.759Z,95353
2023-01-19T09:46:05.749Z,95357
2023-01-19T09:47:05.721Z,95351
2023-01-19T09:48:05.640Z,95347
2023-01-19T09:49:05.666Z,95351
2023-01-19T09:50:05.702Z,95351
2023-01-19T09:51:05.708Z,95344
2023-01-19T09:52:05.718Z,95344
2023-01-19T09:53:05.680Z,95344
2023-01-19T09:54:05.767Z,95349
2023-01-19T09:55:05.682Z,95349
2023-01-19T09:56:05.656Z,95345
2023-01-19T09:57:05.753Z,95345
2023-01-19T09:58:05.680Z,95345
2023-01-19T09:59:05.724Z,95349
2023-01-19T10:00:05.760Z,95343
2023-01-19T10:01:05.815Z,95343
2023-01-19T10:02:05.723Z,95340
2023-01-19T10:03:06.697Z,95339
2023-01-19T10:04:05.694Z,95340
2023-01-19T10:05:05.690Z,95339
2023-01-19T10:06:05.720Z,95339
2023-01-19T10:07:05.741Z,95337
2023-01-19T10:08:05.726Z,95335
2023-01-19T10:09:05.761Z,95338
2023-01-19T10:10:05.741Z,95334
2023-01-19T10:11:05.747Z,95338
2023-01-19T10:12:05.721Z,95338
2023-01-19T10:13:05.712Z,95334
2023-01-19T10:14:05.706Z,95326
2023-01-19T10:15:05.762Z,95329
2023-01-19T10:16:05.805Z,95334
2023-01-19T10:17:05.759Z,95334
2023-01-19T10:18:05.749Z,95331
2023-01-19T10:19:05.750Z,95331
2023-01-19T10:20:05.752Z,95327
2023-01-19T10:21:05.956Z,95328
2023-01-19T10:22:05.797Z,95331
2023-01-19T10:23:05.741Z,95329
2023-01-19T10:24:05.934Z,95330
2023-01-19T10:25:05.749Z,95329
2023-01-19T10:26:05.731Z,95326
2023-01-19T10:27:05.811Z,95324
2023-01-19T10:28:05.763Z,95325
2023-01-19T10:29:05.849Z,95326
2023-01-19T10:30:05.790Z,95327
2023-01-19T10:31:05.903Z,95325
2023-01-19T10:32:05.809Z,95325
2023-01-19T10:33:05.779Z,95330
2023-01-19T10:34:05.813Z,95330
2023-01-19T10:35:05.821Z,95330
2023-01-19T10:36:05.766Z,95330
2023-01-19T10:37:05.857Z,95330
2023-01-19T10:38:05.824Z,95329
2023-01-19T10:39:06.187Z,95332
2023-01-19T10:40:05.829Z,95332
2023-01-19T10:41:05.846Z,95323
2023-01-19T10:42:05.878Z,95323
2023-01-19T10:43:05.824Z,95319
2023-01-19T10:44:05.775Z,95321
2023-01-19T10:45:05.846Z,95322
2023-01-19T10:46:05.921Z,95322
2023-01-19T10:47:05.861Z,95321
2023-01-19T10:48:05.852Z,95318
2023-01-19T10:49:05.844Z,95318
2023-01-19T10:50:05.894Z,95317
2023-01-19T10:51:05.850Z,95317
2023-01-19T10:52:05.834Z,95315
2023-01-19T10:53:06.137Z,95312
2023-01-19T10:54:05.811Z,95312
2023-01-19T10:55:05.832Z,95318
2023-01-19T10:56:05.871Z,95318
2023-01-19T10:57:05.917Z,95315
2023-01-19T10:58:05.849Z,95315
2023-01-19T10:59:05.860Z,95318
2023-01-19T11:00:05.889Z,95316
2023-01-19T11:01:06.000Z,95316
2023-01-19T11:02:06.008Z,95314
2023-01-19T11:03:06.282Z,95317
2023-01-19T11:04:05.938Z,95317
2023-01-19T11:05:05.823Z,95314
2023-01-19T11:06:05.838Z,95317
2023-01-19T11:07:05.862Z,95313
2023-01-19T11:08:05.924Z,95316
2023-01-19T11:09:05.870Z,95316
2023-01-19T11:10:05.886Z,95314
2023-01-19T11:11:05.935Z,95312
2023-01-19T11:12:05.885Z,95312
2023-01-19T11:13:05.924Z,95313
2023-01-19T11:14:05.886Z,95313
2023-01-19T11:15:05.855Z,95316
2023-01-19T11:16:05.938Z,95315
2023-01-19T11:17:05.899Z,95314
2023-01-19T11:18:06.003Z,95312
2023-01-19T11:19:05.892Z,95315
2023-01-19T11:20:05.864Z,95315
2023-01-19T11:21:05.872Z,95317
2023-01-19T11:22:05.909Z,95311
2023-01-19T11:23:05.917Z,95312
2023-01-19T11:24:05.915Z,95313
2023-01-19T11:25:05.908Z,95313
2023-01-19T11:26:05.900Z,95314
2023-01-19T11:27:05.963Z,95315
2023-01-19T11:28:05.883Z,95310
2023-01-19T11:29:05.978Z,95313
2023-01-19T11:30:05.911Z,95313
2023-01-19T11:32:06.005Z,95310
2023-01-19T11:33:05.949Z,95312
2023-01-19T11:34:05.972Z,95309
2023-01-19T11:35:05.931Z,95309
2023-01-19T11:36:05.936Z,95310
2023-01-19T11:37:06.015Z,95308
2023-01-19T11:38:05.944Z,95308
2023-01-19T11:39:05.956Z,95305
2023-01-19T11:40:05.925Z,95312
2023-01-19T11:41:05.962Z,95312
2023-01-19T11:42:05.970Z,95306
2023-01-19T11:43:05.903Z,95306
2023-01-19T11:44:05.919Z,95309
2023-01-19T11:45:05.955Z,95316
2023-01-19T11:46:06.005Z,95313
2023-01-19T11:47:05.959Z,95313
2023-01-19T11:48:05.987Z,95316
2023-01-19T11:49:05.959Z,95313
2023-01-19T11:50:06.005Z,95313
2023-01-19T11:51:05.976Z,95308
2023-01-19T11:52:05.985Z,95310
2023-01-19T11:53:06.317Z,95309
2023-01-19T11:54:05.958Z,95311
2023-01-19T11:55:05.959Z,95307
2023-01-19T11:56:05.989Z,95307
2023-01-19T11:57:05.969Z,95309
2023-01-19T11:58:06.073Z,95305
2023-01-19T11:59:05.969Z,95310
2023-01-19T12:00:05.951Z,95309
2023-01-19T12:01:06.003Z,95306
2023-01-19T12:02:06.058Z,95309
2023-01-19T12:03:06.075Z,95305
2023-01-19T12:04:05.964Z,95305
2023-01-19T12:05:06.048Z,95303
2023-01-19T12:06:06.016Z,95304
2023-01-19T12:07:05.977Z,95302
2023-01-19T12:08:07.004Z,95304
2023-01-19T12:09:05.999Z,95307
2023-01-19T12:10:06.021Z,95305
2023-01-19T12:11:06.448Z,95302
2023-01-19T12:12:05.982Z,95302
2023-01-19T12:13:06.004Z,95304
2023-01-19T12:14:06.001Z,95308
2023-01-19T12:15:06.036Z,95309
2023-01-19T12:16:06.088Z,95309
2023-01-19T12:17:06.088Z,95313
2023-01-19T12:18:06.036Z,95313
2023-01-19T12:19:06.089Z,95314
2023-01-19T12:20:06.046Z,95314
2023-01-19T12:21:06.006Z,95311
2023-01-19T12:22:05.993Z,95306
2023-01-19T12:23:06.685Z,95306
2023-01-19T12:24:06.111Z,95310
2023-01-19T12:25:06.066Z,95310
2023-01-19T12:26:06.054Z,95303
2023-01-19T12:27:06.068Z,95307
2023-01-19T12:28:06.072Z,95308
2023-01-19T12:29:06.515Z,95305
2023-01-19T12:30:06.047Z,95304
2023-01-19T12:31:06.122Z,95304
2023-01-19T12:32:06.113Z,95301
2023-01-19T12:33:06.034Z,95301
2023-01-19T12:34:06.053Z,95299
2023-01-19T12:35:06.191Z,95298
2023-01-19T12:36:06.056Z,95295
2023-01-19T12:37:06.119Z,95294
2023-01-19T12:38:06.079Z,95294
2023-01-19T12:39:06.095Z,95297
2023-01-19T12:40:06.135Z,95296
2023-01-19T12:41:06.091Z,95293
2023-01-19T12:42:06.055Z,95295
2023-01-19T12:43:06.078Z,95291
2023-01-19T12:45:06.106Z,95291
2023-01-19T12:47:06.098Z,95291
2023-01-19T12:49:06.116Z,95283
2023-01-19T12:50:06.131Z,95289
2023-01-19T12:51:06.093Z,95290
2023-01-19T12:52:06.076Z,95290
2023-01-19T12:53:06.241Z,95291
2023-01-19T12:54:06.691Z,95292
2023-01-19T12:55:06.093Z,95287
2023-01-19T12:56:06.108Z,95291
2023-01-19T12:57:06.121Z,95291
2023-01-19T12:58:06.156Z,95290
2023-01-19T12:59:06.192Z,95290
2023-01-19T13:00:06.092Z,95290
2023-01-19T13:01:06.236Z,95279
2023-01-19T13:02:06.201Z,95288
2023-01-19T13:03:06.153Z,95282
2023-01-19T13:04:06.631Z,95287
2023-01-19T13:05:06.163Z,95287
2023-01-19T13:06:06.205Z,95290
2023-01-19T13:07:06.153Z,95292
2023-01-19T13:08:06.188Z,95290
2023-01-19T13:09:06.182Z,95289
2023-01-19T13:10:06.126Z,95292
2023-01-19T13:11:06.255Z,95288
2023-01-19T13:12:06.183Z,95289
2023-01-19T13:13:06.165Z,95290
2023-01-19T13:14:06.144Z,95288
2023-01-19T13:15:06.126Z,95288
2023-01-19T13:16:06.247Z,95285
2023-01-19T13:17:06.569Z,95285
2023-01-19T13:18:06.200Z,95281
2023-01-19T13:19:06.180Z,95279
2023-01-19T13:20:06.228Z,95277
2023-01-19T13:21:06.147Z,95277
2023-01-19T13:22:06.223Z,95279
2023-01-19T13:23:06.209Z,95278
2023-01-19T13:26:06.147Z,95276
2023-01-19T13:27:06.193Z,95277
2023-01-19T13:28:06.163Z,95277
2023-01-19T13:29:06.179Z,95279
2023-01-19T13:30:06.203Z,95278
2023-01-19T13:31:06.296Z,95281
2023-01-19T13:33:06.225Z,95283
2023-01-19T13:34:06.249Z,95279
2023-01-19T13:35:06.197Z,95278
2023-01-19T13:36:06.228Z,95278
2023-01-19T13:37:06.253Z,95283
2023-01-19T13:38:06.238Z,95280
2023-01-19T13:39:06.210Z,95277
2023-01-19T13:40:06.249Z,95280
2023-01-19T13:41:06.228Z,95280
2023-01-19T13:42:06.227Z,95278
2023-01-19T13:43:06.263Z,95278
2023-01-19T13:44:06.247Z,95278
2023-01-19T13:45:06.280Z,95280
2023-01-19T13:46:06.488Z,95279
2023-01-19T13:47:06.250Z,95278
2023-01-19T13:48:06.260Z,95278
2023-01-19T13:49:06.259Z,95276
2023-01-19T13:50:06.255Z,95279
2023-01-19T13:51:06.239Z,95274
2023-01-19T13:53:06.271Z,95273
2023-01-19T13:54:06.276Z,95273
2023-01-19T13:55:06.647Z,95273
2023-01-19T13:56:06.281Z,95280
2023-01-19T13:57:06.249Z,95279
2023-01-19T13:58:06.333Z,95280
2023-01-19T13:59:06.294Z,95273
2023-01-19T14:00:06.326Z,95284
2023-01-19T14:01:06.396Z,95283
2023-01-19T14:02:06.344Z,95283
2023-01-19T14:03:06.387Z,95277
2023-01-19T14:04:06.414Z,95280
2023-01-19T14:05:06.299Z,95280
2023-01-19T14:06:06.339Z,95279
2023-01-19T14:07:06.519Z,95275
2023-01-19T14:08:06.360Z,95278
2023-01-19T14:10:06.520Z,95275
2023-01-19T14:11:06.281Z,95275
2023-01-19T14:12:06.291Z,95272
2023-01-19T14:13:06.348Z,95274
2023-01-19T14:14:06.314Z,95274